Time;durP1;ratioP1;P1;durP2;ratioP2;P2;SDS_P1;SDS_P2;PMS_P1;PMS_P2;Temp;Humidity;BMP_temperature;BMP_pressure;BME280_temperature;BME280_humidity;BME280_pressure;Samples;Min_cycle;Max_cycle;Signal;HPM_P1;HPM_P2
2024/01/16 00:01:34;;;;;;;3.60;2.50;;;5.30;57.70;;;;;;5027911;28;20070;-72
2024/01/16 00:04:02;;;;;;;2.95;2.15;;;5.40;57.70;;;;;;5058215;28;20061;-70
2024/01/16 00:06:30;;;;;;;2.47;1.90;;;5.40;57.60;;;;;;5051909;28;20506;-72
2024/01/16 00:08:59;;;;;;;4.68;2.83;;;5.30;57.60;;;;;;5036970;28;20133;-71
2024/01/16 00:11:27;;;;;;;7.30;2.85;;;5.30;57.60;;;;;;5057666;28;20060;-72
2024/01/16 00:13:57;;;;;;;3.33;2.40;;;5.30;57.60;;;;;;5032166;28;20140;-71
2024/01/16 00:16:26;;;;;;;2.17;1.63;;;5.30;57.60;;;;;;5044840;28;20049;-69
2024/01/16 00:18:54;;;;;;;4.30;2.00;;;5.30;57.60;;;;;;5050901;28;20138;-71
2024/01/16 00:21:23;;;;;;;3.78;2.40;;;5.30;57.60;;;;;;5037514;28;20045;-70
2024/01/16 00:23:51;;;;;;;2.15;1.60;;;5.30;57.60;;;;;;5035508;28;20554;-71
2024/01/16 00:26:23;;;;;;;15.63;2.55;;;5.30;57.60;;;;;;5034233;28;20052;-71
2024/01/16 00:28:51;;;;;;;4.53;1.90;;;5.30;57.70;;;;;;5030105;28;20651;-71
2024/01/16 00:31:22;;;;;;;4.10;2.22;;;5.30;57.70;;;;;;5033971;28;20052;-71
2024/01/16 00:33:50;;;;;;;3.83;1.92;;;5.30;57.60;;;;;;5033771;28;20049;-71
2024/01/16 00:36:19;;;;;;;5.38;1.83;;;5.30;57.60;;;;;;5057260;28;20152;-71
2024/01/16 00:38:47;;;;;;;4.78;2.28;;;5.30;58.10;;;;;;5028030;28;20059;-70
2024/01/16 00:41:15;;;;;;;1.67;1.45;;;5.30;57.60;;;;;;5032226;28;20053;-71
2024/01/16 00:43:44;;;;;;;3.42;2.08;;;5.30;57.60;;;;;;5033607;28;20128;-72
2024/01/16 00:46:13;;;;;;;4.97;2.22;;;5.30;58.20;;;;;;5031470;28;20053;-70
2024/01/16 00:48:43;;;;;;;4.47;1.70;;;5.30;57.60;;;;;;5037796;28;20078;-70
2024/01/16 00:51:11;;;;;;;7.32;3.80;;;5.30;57.60;;;;;;5047083;28;20836;-70
2024/01/16 00:53:41;;;;;;;3.22;1.88;;;5.30;57.50;;;;;;5041810;28;20707;-71
2024/01/16 00:56:10;;;;;;;8.10;1.75;;;5.30;57.40;;;;;;5040629;28;20065;-72
2024/01/16 00:58:39;;;;;;;2.47;1.98;;;5.40;57.50;;;;;;5062110;28;20125;-70
2024/01/16 01:01:07;;;;;;;5.45;2.55;;;5.40;58.00;;;;;;5039095;28;20407;-69
2024/01/16 01:03:36;;;;;;;4.07;1.55;;;5.40;57.40;;;;;;5051005;28;20776;-71
2024/01/16 01:06:06;;;;;;;6.75;2.47;;;5.40;57.40;;;;;;5051045;28;20057;-71
2024/01/16 01:08:35;;;;;;;4.15;2.25;;;5.50;57.40;;;;;;5043690;28;20453;-70
2024/01/16 01:11:03;;;;;;;3.47;2.08;;;5.50;57.30;;;;;;5041565;28;20065;-68
2024/01/16 01:13:32;;;;;;;4.25;2.53;;;5.50;57.30;;;;;;5040107;28;20064;-70
2024/01/16 01:16:01;;;;;;;2.28;1.60;;;5.40;57.30;;;;;;5036365;28;20087;-71
2024/01/16 01:18:29;;;;;;;3.17;2.00;;;5.50;57.30;;;;;;5036805;28;20063;-69
2024/01/16 01:20:57;;;;;;;5.15;2.60;;;5.50;57.30;;;;;;5039286;28;20080;-70
2024/01/16 01:23:28;;;;;;;2.00;1.20;;;5.50;57.30;;;;;;5028455;28;20056;-69
2024/01/16 01:25:56;;;;;;;3.15;1.85;;;5.50;57.20;;;;;;5034799;28;20060;-71
2024/01/16 01:28:24;;;;;;;2.05;1.65;;;5.50;57.20;;;;;;5036578;28;20688;-69
2024/01/16 01:30:53;;;;;;;2.85;2.17;;;5.50;57.20;;;;;;5046820;28;20138;-70
2024/01/16 01:33:21;;;;;;;2.05;1.70;;;5.50;57.10;;;;;;5036374;28;20052;-70
2024/01/16 01:35:50;;;;;;;3.45;2.22;;;5.50;57.10;;;;;;5029916;28;20396;-70
2024/01/16 01:38:19;;;;;;;1.95;1.38;;;5.60;57.20;;;;;;5034095;28;20079;-70
2024/01/16 01:40:49;;;;;;;4.85;3.05;;;5.60;57.10;;;;;;5026115;28;20049;-69
2024/01/16 01:43:23;;;;;;;3.60;2.42;;;5.60;57.10;;;;;;5039051;28;20581;-70
2024/01/16 01:46:07;;;;;;;2.85;1.63;;;5.60;57.10;;;;;;5028489;28;20055;-69
2024/01/16 01:48:36;;;;;;;2.15;1.55;;;5.60;57.00;;;;;;5022364;28;20053;-70
2024/01/16 01:51:06;;;;;;;2.25;1.60;;;5.60;57.00;;;;;;5025625;28;20084;-69
2024/01/16 01:53:35;;;;;;;2.65;1.75;;;5.60;56.90;;;;;;5048415;28;20052;-70
2024/01/16 01:56:09;;;;;;;3.35;2.15;;;5.60;56.90;;;;;;5043589;28;20078;-69
2024/01/16 01:58:46;;;;;;;6.68;1.95;;;5.60;56.90;;;;;;5029231;28;20053;-82
2024/01/16 02:01:17;;;;;;;2.83;1.77;;;5.60;56.90;;;;;;5050856;28;20164;-70
2024/01/16 02:03:47;;;;;;;2.67;1.73;;;5.60;56.90;;;;;;5031162;28;20916;-75
2024/01/16 02:06:18;;;;;;;5.82;2.40;;;5.70;57.30;;;;;;5033120;28;20083;-70
2024/01/16 02:08:47;;;;;;;4.00;2.03;;;5.70;56.80;;;;;;5026804;28;20778;-71
2024/01/16 02:11:16;;;;;;;2.35;1.70;;;5.70;56.80;;;;;;5040650;28;20143;-68
2024/01/16 02:13:45;;;;;;;4.95;1.85;;;5.70;56.70;;;;;;5039859;28;20056;-69
2024/01/16 02:16:20;;;;;;;2.55;1.67;;;5.70;56.70;;;;;;5043777;28;20067;-68
2024/01/16 02:18:49;;;;;;;17.55;5.18;;;5.70;56.70;;;;;;5037645;28;20063;-69
2024/01/16 02:21:22;;;;;;;1.48;1.38;;;5.70;56.70;;;;;;5033712;28;20061;-70
2024/01/16 02:23:52;;;;;;;3.55;1.83;;;5.70;56.70;;;;;;5023346;28;20151;-69
2024/01/16 02:26:21;;;;;;;2.60;1.95;;;5.70;56.60;;;;;;5031357;28;20060;-68
2024/01/16 02:28:50;;;;;;;28.73;5.22;;;5.70;56.70;;;;;;5026453;28;20090;-70
2024/01/16 02:31:19;;;;;;;2.88;1.95;;;5.70;56.70;;;;;;5059098;28;20724;-68
2024/01/16 02:33:47;;;;;;;5.00;2.97;;;5.80;56.70;;;;;;5042544;28;20053;-68
2024/01/16 02:36:16;;;;;;;33.95;8.55;;;5.80;56.60;;;;;;5052819;28;20136;-69
2024/01/16 02:38:44;;;;;;;83.65;19.63;;;5.80;56.60;;;;;;5051040;28;20460;-70
2024/01/16 02:41:18;;;;;;;25.10;6.00;;;5.80;56.50;;;;;;5038998;28;20053;-69
2024/01/16 02:43:46;;;;;;;12.63;2.80;;;5.50;56.30;;;;;;5051232;28;20075;-68
2024/01/16 02:46:15;;;;;;;13.88;3.10;;;5.80;56.90;;;;;;5072288;28;20044;-68
2024/01/16 02:48:43;;;;;;;12.43;2.58;;;5.70;56.50;;;;;;5041354;28;20135;-70
2024/01/16 02:51:12;;;;;;;8.50;4.30;;;5.70;56.50;;;;;;5067359;28;20059;-67
2024/01/16 02:53:41;;;;;;;5.93;2.22;;;5.70;56.50;;;;;;5052660;28;20056;-69
2024/01/16 02:56:09;;;;;;;4.03;1.88;;;5.70;56.50;;;;;;5058405;28;20052;-69
2024/01/16 02:58:40;;;;;;;6.30;2.13;;;5.70;56.50;;;;;;5056093;28;20153;-69
2024/01/16 03:01:12;;;;;;;2.40;1.75;;;5.70;56.40;;;;;;5049470;28;20056;-69
2024/01/16 03:03:40;;;;;;;22.55;7.10;;;5.70;56.40;;;;;;5061856;28;20154;-69
2024/01/16 03:06:09;;;;;;;13.13;3.58;;;5.70;56.40;;;;;;5066147;28;20175;-69
2024/01/16 03:08:40;;;;;;;20.35;6.43;;;5.70;56.40;;;;;;5049959;28;20139;-69
2024/01/16 03:11:09;;;;;;;10.05;2.47;;;5.60;56.40;;;;;;5068555;28;20048;-70
2024/01/16 03:13:40;;;;;;;7.65;3.58;;;5.70;56.50;;;;;;5071386;28;20144;-69
2024/01/16 03:16:09;;;;;;;24.42;3.55;;;5.60;56.40;;;;;;5051682;28;20067;-70
2024/01/16 03:18:38;;;;;;;2.38;1.67;;;5.60;56.40;;;;;;5057782;28;20136;-70
2024/01/16 03:21:08;;;;;;;3.08;2.33;;;5.60;56.40;;;;;;5058795;28;20048;-70
2024/01/16 03:23:37;;;;;;;4.85;2.20;;;5.50;56.50;;;;;;5052570;28;20072;-70
2024/01/16 03:26:05;;;;;;;2.92;1.80;;;5.30;56.20;;;;;;5057880;28;20060;-68
2024/01/16 03:28:34;;;;;;;3.95;1.88;;;5.10;56.20;;;;;;5051992;27;20055;-69
2024/01/16 03:31:04;;;;;;;5.03;2.30;;;5.00;56.30;;;;;;5060581;28;20086;-69
2024/01/16 03:33:34;;;;;;;7.82;3.03;;;4.90;56.30;;;;;;5076975;28;20931;-69
2024/01/16 03:36:03;;;;;;;9.52;4.50;;;4.80;56.60;;;;;;5045197;28;20098;-69
2024/01/16 03:38:32;;;;;;;3.10;1.67;;;4.70;56.50;;;;;;5056192;28;20056;-69
2024/01/16 03:41:01;;;;;;;29.08;9.50;;;4.60;56.50;;;;;;5083722;28;20071;-70
2024/01/16 03:43:30;;;;;;;9.77;3.63;;;4.70;56.70;;;;;;5071765;28;20108;-70
2024/01/16 03:45:59;;;;;;;6.75;3.08;;;4.70;56.70;;;;;;5077655;28;20048;-70
2024/01/16 03:48:30;;;;;;;4.55;1.88;;;4.80;56.60;;;;;;5057899;28;20147;-69
2024/01/16 03:50:59;;;;;;;7.15;3.45;;;4.80;56.50;;;;;;5061318;28;20044;-68
2024/01/16 03:53:28;;;;;;;9.27;2.78;;;4.90;56.50;;;;;;5056583;28;20083;-70
2024/01/16 03:55:57;;;;;;;11.45;4.47;;;4.90;56.50;;;;;;5062942;28;20156;-71
2024/01/16 03:58:27;;;;;;;6.22;3.63;;;4.90;56.40;;;;;;5051719;28;20064;-68
2024/01/16 04:00:57;;;;;;;13.45;3.17;;;5.00;56.40;;;;;;5049221;28;20181;-70
2024/01/16 04:03:26;;;;;;;8.27;3.53;;;5.00;56.40;;;;;;5081056;28;20051;-70
2024/01/16 04:05:56;;;;;;;11.07;2.97;;;5.00;56.30;;;;;;5060600;28;20550;-82
2024/01/16 04:08:25;;;;;;;3.17;2.38;;;5.00;56.30;;;;;;5078683;28;20502;-68
2024/01/16 04:10:53;;;;;;;6.97;2.88;;;4.90;56.20;;;;;;5059409;28;20055;-68
2024/01/16 04:13:22;;;;;;;17.35;3.05;;;4.80;56.20;;;;;;5071327;28;20048;-71
2024/01/16 04:15:50;;;;;;;11.23;3.40;;;4.80;56.30;;;;;;5062771;28;20521;-71
2024/01/16 04:18:18;;;;;;;1.80;1.58;;;4.70;56.30;;;;;;5049466;28;20498;-66
2024/01/16 04:20:47;;;;;;;7.13;2.58;;;4.70;56.30;;;;;;5054343;28;20307;-69
2024/01/16 04:23:18;;;;;;;3.40;1.92;;;4.60;56.30;;;;;;5055975;28;20060;-69
2024/01/16 04:25:46;;;;;;;4.03;2.83;;;4.60;56.30;;;;;;5066027;28;20120;-69
2024/01/16 04:28:15;;;;;;;8.13;3.05;;;4.50;56.30;;;;;;5060515;28;20060;-68
2024/01/16 04:30:43;;;;;;;8.63;3.20;;;4.40;56.30;;;;;;5053946;28;20052;-69
2024/01/16 04:33:12;;;;;;;2.03;1.83;;;4.30;56.30;;;;;;5055007;28;20721;-69
2024/01/16 04:35:40;;;;;;;8.27;2.88;;;4.20;56.50;;;;;;5058229;28;20147;-69
2024/01/16 04:38:09;;;;;;;1.88;1.77;;;4.10;57.00;;;;;;5066494;28;20481;-69
2024/01/16 04:40:38;;;;;;;6.65;1.98;;;4.10;56.80;;;;;;5075958;28;20063;-69
2024/01/16 04:43:07;;;;;;;4.25;2.78;;;4.00;56.50;;;;;;5047950;28;20494;-69
2024/01/16 04:45:35;;;;;;;9.35;2.83;;;3.90;56.40;;;;;;5072496;28;20041;-68
2024/01/16 04:48:04;;;;;;;2.25;2.05;;;3.90;56.50;;;;;;5064097;28;20526;-68
2024/01/16 04:50:33;;;;;;;3.95;2.50;;;3.90;56.50;;;;;;5055372;28;20123;-69
2024/01/16 04:53:01;;;;;;;2.97;2.10;;;3.80;56.50;;;;;;5048833;28;20152;-70
2024/01/16 04:55:30;;;;;;;4.47;2.85;;;3.80;56.50;;;;;;5054662;28;20067;-69
2024/01/16 04:58:00;;;;;;;6.93;1.92;;;3.70;56.50;;;;;;5053362;28;20138;-69
2024/01/16 05:00:28;;;;;;;11.38;2.42;;;3.70;56.50;;;;;;5057065;27;20088;-68
2024/01/16 05:02:57;;;;;;;3.08;2.35;;;3.70;56.50;;;;;;5048647;28;20106;-69
2024/01/16 05:05:26;;;;;;;1.55;1.45;;;3.60;56.50;;;;;;5056737;28;20068;-68
2024/01/16 05:07:57;;;;;;;24.20;2.10;;;3.60;56.70;;;;;;5057289;28;20048;-69
2024/01/16 05:10:26;;;;;;;20.02;4.18;;;3.60;56.50;;;;;;5054878;28;20059;-67
2024/01/16 05:12:55;;;;;;;4.20;1.88;;;3.50;56.50;;;;;;5046865;28;20199;-70
2024/01/16 05:15:24;;;;;;;4.28;2.55;;;3.50;56.50;;;;;;5047685;28;20077;-69
2024/01/16 05:17:53;;;;;;;6.05;3.03;;;3.50;56.60;;;;;;5066406;28;20131;-71
2024/01/16 05:20:22;;;;;;;3.28;2.05;;;3.50;56.50;;;;;;5068659;28;20087;-69
2024/01/16 05:22:51;;;;;;;2.42;2.22;;;3.50;56.50;;;;;;5042898;28;20100;-68
2024/01/16 05:25:19;;;;;;;4.20;2.92;;;3.50;56.50;;;;;;5060926;28;20129;-70
2024/01/16 05:27:49;;;;;;;10.75;3.25;;;3.50;56.50;;;;;;5064072;28;20052;-68
2024/01/16 05:30:17;;;;;;;3.78;2.35;;;3.50;56.50;;;;;;5054354;28;20124;-69
2024/01/16 05:32:47;;;;;;;3.85;1.80;;;3.50;56.40;;;;;;5048189;28;20084;-68
2024/01/16 05:35:15;;;;;;;12.88;3.28;;;3.50;56.50;;;;;;5064326;28;20060;-70
2024/01/16 05:37:44;;;;;;;4.63;2.10;;;3.40;56.50;;;;;;5063186;28;20054;-67
2024/01/16 05:40:12;;;;;;;8.40;3.22;;;3.40;56.50;;;;;;5068610;28;20060;-69
2024/01/16 05:42:41;;;;;;;3.25;2.50;;;3.40;56.50;;;;;;5073302;28;20045;-68
2024/01/16 05:45:10;;;;;;;7.55;3.08;;;3.30;56.50;;;;;;5042475;28;20068;-68
2024/01/16 05:47:39;;;;;;;16.33;2.53;;;3.30;56.50;;;;;;5038282;28;20060;-66
2024/01/16 05:50:09;;;;;;;4.85;2.05;;;3.30;56.50;;;;;;5033869;28;20053;-63
2024/01/16 05:52:40;;;;;;;1.85;1.67;;;3.30;56.60;;;;;;5030342;28;20230;-62
2024/01/16 05:55:10;;;;;;;2.33;2.13;;;3.20;56.60;;;;;;5034519;28;20111;-61
2024/01/16 05:57:39;;;;;;;5.00;1.98;;;3.20;56.60;;;;;;5037955;28;20756;-61
2024/01/16 06:00:08;;;;;;;1.83;1.73;;;3.20;56.60;;;;;;5031697;28;20064;-61
2024/01/16 06:02:38;;;;;;;2.50;2.17;;;3.20;56.60;;;;;;5047760;28;20071;-61
2024/01/16 06:05:07;;;;;;;8.90;2.40;;;3.20;56.60;;;;;;5039720;28;20064;-61
2024/01/16 06:07:36;;;;;;;18.60;1.75;;;3.20;56.60;;;;;;5030288;28;20060;-60
2024/01/16 06:10:06;;;;;;;3.10;2.13;;;3.10;56.90;;;;;;5036447;28;20826;-61
2024/01/16 06:12:37;;;;;;;5.95;3.05;;;3.10;56.60;;;;;;5034975;28;20084;-67
2024/01/16 06:15:06;;;;;;;11.10;4.20;;;3.10;56.60;;;;;;5038282;28;20049;-58
2024/01/16 06:17:35;;;;;;;3.65;2.72;;;3.10;56.60;;;;;;5045466;28;20063;-61
2024/01/16 06:20:04;;;;;;;2.75;2.40;;;3.10;56.70;;;;;;5029172;28;20059;-62
2024/01/16 06:22:32;;;;;;;1.25;1.20;;;3.10;56.70;;;;;;5021714;28;20136;-57
2024/01/16 06:25:02;;;;;;;2.60;2.40;;;3.10;56.70;;;;;;5033040;28;20126;-61
2024/01/16 06:27:31;;;;;;;8.68;2.17;;;3.10;56.60;;;;;;5036295;28;20507;-61
2024/01/16 06:29:59;;;;;;;2.83;2.42;;;3.10;56.60;;;;;;5035005;28;20083;-60
2024/01/16 06:32:30;;;;;;;4.00;2.22;;;3.10;56.70;;;;;;5043980;28;20126;-61
2024/01/16 06:34:59;;;;;;;8.77;3.30;;;3.20;56.70;;;;;;5028872;28;20048;-63
2024/01/16 06:37:27;;;;;;;16.50;3.35;;;3.20;56.80;;;;;;5033676;28;20744;-62
2024/01/16 06:39:56;;;;;;;7.88;3.58;;;3.20;56.70;;;;;;5031583;28;20056;-61
2024/01/16 06:42:27;;;;;;;9.48;3.63;;;3.20;56.70;;;;;;5031190;28;20689;-62
2024/01/16 06:44:57;;;;;;;6.80;2.58;;;3.30;56.80;;;;;;5043298;28;20049;-61
2024/01/16 06:47:26;;;;;;;2.80;2.58;;;3.30;56.90;;;;;;5032853;28;20063;-62
2024/01/16 06:49:54;;;;;;;3.17;2.33;;;3.30;56.80;;;;;;5031235;28;20060;-62
2024/01/16 06:52:23;;;;;;;9.48;3.08;;;3.30;56.50;;;;;;5031292;28;20061;-61
2024/01/16 06:54:52;;;;;;;1.92;1.60;;;3.30;56.50;;;;;;5026405;28;20045;-58
2024/01/16 06:57:20;;;;;;;4.72;2.42;;;3.30;56.50;;;;;;5046047;28;20045;-60
2024/01/16 06:59:50;;;;;;;4.97;2.22;;;3.30;56.50;;;;;;5026089;28;20045;-61
2024/01/16 07:02:19;;;;;;;14.40;3.00;;;3.40;56.50;;;;;;5018273;28;20072;-62
2024/01/16 07:04:47;;;;;;;5.80;2.78;;;3.40;56.50;;;;;;5027241;28;20218;-62
2024/01/16 07:07:16;;;;;;;9.45;3.47;;;3.40;56.40;;;;;;5045324;28;20499;-62
2024/01/16 07:09:44;;;;;;;6.38;3.72;;;3.40;56.40;;;;;;5032612;28;20168;-60
2024/01/16 07:12:13;;;;;;;10.98;3.65;;;3.40;56.50;;;;;;5027969;28;20083;-61
2024/01/16 07:14:41;;;;;;;8.02;3.38;;;3.30;56.30;;;;;;5023997;28;20406;-59
2024/01/16 07:17:12;;;;;;;7.18;3.80;;;3.30;56.40;;;;;;5027172;28;20596;-62
2024/01/16 07:19:42;;;;;;;5.35;4.03;;;3.30;56.40;;;;;;5029192;28;20478;-58
2024/01/16 07:22:11;;;;;;;16.23;4.55;;;3.30;56.40;;;;;;5019191;28;20054;-61
2024/01/16 07:24:39;;;;;;;7.10;3.75;;;3.30;56.50;;;;;;5038985;28;20124;-61
2024/01/16 07:27:08;;;;;;;9.57;3.60;;;3.20;56.50;;;;;;5029235;28;20056;-63
2024/01/16 07:29:36;;;;;;;10.15;2.83;;;3.30;56.60;;;;;;5029304;28;20469;-59
2024/01/16 07:32:05;;;;;;;9.85;3.22;;;3.30;56.60;;;;;;5015998;28;20057;-60
2024/01/16 07:34:36;;;;;;;2.55;2.05;;;3.30;56.60;;;;;;5022827;28;20060;-63
2024/01/16 07:37:05;;;;;;;4.10;3.55;;;3.30;56.60;;;;;;5047364;28;20060;-63
2024/01/16 07:39:33;;;;;;;6.93;3.38;;;3.30;56.60;;;;;;5030780;28;20056;-61
2024/01/16 07:42:02;;;;;;;38.10;5.13;;;3.40;56.70;;;;;;5017171;28;20060;-61
2024/01/16 07:44:31;;;;;;;2.88;2.22;;;3.40;56.70;;;;;;5047021;28;20063;-61
2024/01/16 07:47:00;;;;;;;2.58;2.17;;;3.50;56.70;;;;;;5066230;28;20057;-62
2024/01/16 07:49:29;;;;;;;2.95;2.67;;;3.60;56.70;;;;;;5051887;28;21054;-62
2024/01/16 07:51:58;;;;;;;7.35;2.70;;;3.60;56.70;;;;;;5039278;28;20722;-60
2024/01/16 07:54:27;;;;;;;4.03;2.88;;;3.80;56.90;;;;;;5046183;28;20040;-61
2024/01/16 07:56:55;;;;;;;4.93;2.42;;;3.90;56.70;;;;;;5043249;28;20057;-61
2024/01/16 07:59:23;;;;;;;3.78;2.33;;;4.00;56.60;;;;;;5046282;28;20063;-61
2024/01/16 08:01:53;;;;;;;5.10;2.55;;;4.20;56.90;;;;;;5036969;28;20130;-63
2024/01/16 08:04:21;;;;;;;4.28;2.47;;;4.40;56.80;;;;;;5063128;28;21502;-60
2024/01/16 08:06:50;;;;;;;7.20;3.42;;;4.60;56.80;;;;;;5057629;28;21675;-60
2024/01/16 08:09:20;;;;;;;7.50;2.88;;;4.80;56.70;;;;;;5051433;28;20090;-61
2024/01/16 08:11:49;;;;;;;14.43;3.78;;;5.00;56.50;;;;;;5039845;28;20060;-62
2024/01/16 08:14:17;;;;;;;12.38;3.83;;;5.20;56.40;;;;;;5047179;28;20092;-61
2024/01/16 08:16:46;;;;;;;19.20;2.90;;;5.30;56.30;;;;;;5040115;28;20056;-62
2024/01/16 08:19:14;;;;;;;6.40;3.80;;;5.40;56.30;;;;;;5051132;28;20075;-62
2024/01/16 08:21:43;;;;;;;3.75;3.17;;;5.50;56.20;;;;;;5035483;28;20064;-61
2024/01/16 08:24:12;;;;;;;12.73;2.00;;;5.60;56.20;;;;;;5050860;28;20056;-60
2024/01/16 08:26:42;;;;;;;3.85;2.33;;;5.70;55.90;;;;;;5055202;28;20573;-61
2024/01/16 08:29:10;;;;;;;7.22;3.00;;;5.80;55.80;;;;;;5050579;28;20574;-62
2024/01/16 08:31:38;;;;;;;6.70;2.72;;;5.80;55.90;;;;;;5053459;28;20067;-59
2024/01/16 08:34:07;;;;;;;19.88;3.25;;;5.90;56.00;;;;;;5050195;28;20064;-62
2024/01/16 08:36:37;;;;;;;8.70;3.80;;;6.00;55.90;;;;;;5045606;28;20446;-61
2024/01/16 08:39:06;;;;;;;8.93;2.72;;;6.00;55.90;;;;;;5052607;28;20055;-59
2024/01/16 08:41:34;;;;;;;4.97;3.00;;;6.10;55.90;;;;;;5041348;28;20048;-61
2024/01/16 08:44:04;;;;;;;8.82;4.18;;;6.20;55.90;;;;;;5032236;28;20057;-60
2024/01/16 08:46:33;;;;;;;4.50;2.30;;;6.20;56.00;;;;;;5028328;28;20143;-61
2024/01/16 08:49:01;;;;;;;0.50;0.50;;;6.20;56.20;;;;;;5043108;28;20069;-61
2024/01/16 08:51:30;;;;;;;0.40;0.40;;;6.20;57.40;;;;;;5021910;28;20049;-63
2024/01/16 08:53:58;;;;;;;0.40;0.40;;;6.20;58.50;;;;;;5024012;28;20068;-61
2024/01/16 08:56:27;;;;;;;0.40;0.40;;;6.20;59.50;;;;;;5032491;28;20218;-63
2024/01/16 08:58:58;;;;;;;0.40;0.40;;;6.20;59.90;;;;;;5029683;28;20140;-63
2024/01/16 09:01:28;;;;;;;0.50;0.50;;;6.20;60.30;;;;;;5020082;28;20057;-56
2024/01/16 09:03:56;;;;;;;0.40;0.40;;;6.10;60.60;;;;;;5027387;28;20135;-65
2024/01/16 09:06:25;;;;;;;0.40;0.40;;;6.10;60.90;;;;;;5033731;28;20081;-61
2024/01/16 09:08:53;;;;;;;0.50;0.50;;;6.00;61.60;;;;;;5022877;28;20402;-62
2024/01/16 09:11:22;;;;;;;0.40;0.40;;;6.10;62.00;;;;;;5023191;28;20103;-59
2024/01/16 09:13:51;;;;;;;0.45;0.45;;;6.20;62.50;;;;;;5028952;28;20065;-62
2024/01/16 09:16:19;;;;;;;0.40;0.40;;;6.20;62.40;;;;;;5034636;28;20059;-62
2024/01/16 09:18:49;;;;;;;0.50;0.50;;;6.20;62.40;;;;;;5023182;28;20132;-62
2024/01/16 09:21:18;;;;;;;0.40;0.40;;;6.20;62.80;;;;;;5023840;28;20061;-58
2024/01/16 09:23:46;;;;;;;0.40;0.40;;;6.30;63.00;;;;;;5045020;28;20049;-62
2024/01/16 09:26:15;;;;;;;0.40;0.40;;;6.40;63.20;;;;;;5032906;28;20063;-60
2024/01/16 09:28:44;;;;;;;0.40;0.40;;;6.50;63.20;;;;;;5039230;28;20494;-61
2024/01/16 09:31:12;;;;;;;0.57;0.57;;;6.60;63.30;;;;;;5022414;28;20159;-60
2024/01/16 09:33:41;;;;;;;0.40;0.40;;;6.80;63.20;;;;;;5025100;28;20667;-61
2024/01/16 09:36:11;;;;;;;0.40;0.40;;;6.90;63.20;;;;;;5030401;28;20179;-61
2024/01/16 09:38:40;;;;;;;0.40;0.40;;;7.00;63.40;;;;;;5047617;28;20044;-61
2024/01/16 09:41:09;;;;;;;0.40;0.40;;;7.10;63.40;;;;;;5039049;28;20049;-60
2024/01/16 09:43:38;;;;;;;0.40;0.40;;;7.20;63.60;;;;;;5045159;28;20372;-62
2024/01/16 09:46:10;;;;;;;0.40;0.40;;;7.40;63.80;;;;;;5053584;28;20199;-60
2024/01/16 09:48:40;;;;;;;0.40;0.40;;;7.70;64.10;;;;;;5052040;28;20131;-59
2024/01/16 09:51:09;;;;;;;0.40;0.40;;;8.00;64.10;;;;;;5051054;28;20049;-60
2024/01/16 09:53:38;;;;;;;0.32;0.32;;;8.30;64.10;;;;;;5044270;28;20402;-59
2024/01/16 09:56:14;;;;;;;0.40;0.40;;;8.60;63.70;;;;;;5053616;28;20106;-60
2024/01/16 09:58:44;;;;;;;0.40;0.40;;;8.90;63.50;;;;;;5048964;28;20126;-66
2024/01/16 10:01:13;;;;;;;0.32;0.32;;;9.40;63.40;;;;;;5063240;28;20051;-60
2024/01/16 10:03:45;;;;;;;0.30;0.30;;;9.90;62.70;;;;;;5041405;28;20372;-60
2024/01/16 10:06:16;;;;;;;0.30;0.30;;;10.40;61.90;;;;;;5063685;28;20051;-61
2024/01/16 10:08:47;;;;;;;0.30;0.30;;;10.70;60.50;;;;;;5054476;28;20167;-60
2024/01/16 10:11:15;;;;;;;0.30;0.30;;;10.80;59.50;;;;;;5044941;28;20134;-60
2024/01/16 10:13:45;;;;;;;0.30;0.30;;;10.80;59.20;;;;;;5045231;28;20375;-60
2024/01/16 10:16:13;;;;;;;0.30;0.30;;;10.80;59.40;;;;;;5051876;28;20056;-59
2024/01/16 10:18:41;;;;;;;0.30;0.30;;;11.00;59.50;;;;;;5053059;28;20767;-61
2024/01/16 10:21:22;;;;;;;0.30;0.30;;;11.10;59.40;;;;;;5047441;28;20153;-60
2024/01/16 10:23:52;;;;;;;0.30;0.30;;;11.40;59.60;;;;;;5046665;28;20048;-60
2024/01/16 10:26:22;;;;;;;0.30;0.30;;;11.80;59.80;;;;;;5055414;28;20506;-59
2024/01/16 10:28:51;;;;;;;0.30;0.30;;;12.00;59.20;;;;;;5052572;28;20092;-59
2024/01/16 10:31:19;;;;;;;0.30;0.30;;;12.00;58.80;;;;;;5043491;28;20072;-61
2024/01/16 10:33:48;;;;;;;0.30;0.30;;;11.90;58.60;;;;;;5039170;28;21639;-61
2024/01/16 10:36:19;;;;;;;0.30;0.30;;;11.80;58.80;;;;;;5066753;28;20566;-62
2024/01/16 10:38:51;;;;;;;0.30;0.30;;;11.90;59.70;;;;;;5064418;28;20056;-60
2024/01/16 10:41:25;;;;;;;0.30;0.30;;;12.30;60.00;;;;;;5047709;28;20092;-56
2024/01/16 10:44:06;;;;;;;0.30;0.30;;;12.40;59.30;;;;;;5053429;28;20418;-59
2024/01/16 10:46:37;;;;;;;0.30;0.30;;;12.50;59.30;;;;;;5056786;28;20515;-60
2024/01/16 10:49:06;;;;;;;0.30;0.30;;;12.60;59.30;;;;;;5061014;28;20782;-59
2024/01/16 10:51:35;;;;;;;0.25;0.25;;;12.50;59.20;;;;;;5037499;28;20383;-59
2024/01/16 10:54:05;;;;;;;0.20;0.20;;;12.30;59.20;;;;;;5056292;28;20102;-61
2024/01/16 10:56:36;;;;;;;0.30;0.30;;;12.10;59.80;;;;;;5057836;28;20530;-60
2024/01/16 10:59:13;;;;;;;0.30;0.30;;;12.00;59.90;;;;;;5057318;28;20202;-59
2024/01/16 11:01:46;;;;;;;0.30;0.30;;;11.80;60.10;;;;;;5038542;28;20117;-60
2024/01/16 11:04:15;;;;;;;0.30;0.30;;;11.60;60.40;;;;;;5049854;28;20056;-59
2024/01/16 11:06:44;;;;;;;0.30;0.30;;;11.50;61.70;;;;;;5052195;28;20065;-63
2024/01/16 11:09:15;;;;;;;0.30;0.30;;;11.50;61.20;;;;;;5051728;28;20999;-60
2024/01/16 11:11:47;;;;;;;0.30;0.30;;;11.50;61.20;;;;;;5037285;28;20358;-60
2024/01/16 11:14:16;;;;;;;0.30;0.30;;;11.50;61.40;;;;;;5047242;28;20052;-61
2024/01/16 11:16:47;;;;;;;0.30;0.30;;;11.40;61.30;;;;;;5065315;28;20558;-59
2024/01/16 11:19:17;;;;;;;0.20;0.20;;;11.30;61.30;;;;;;5045216;28;20845;-60
2024/01/16 11:22:07;;;;;;;0.30;0.30;;;11.20;61.30;;;;;;5048908;28;20056;-61
2024/01/16 11:24:35;;;;;;;0.30;0.30;;;11.00;61.40;;;;;;5047400;28;20088;-59
2024/01/16 11:27:05;;;;;;;0.30;0.30;;;10.90;61.70;;;;;;5054523;28;20401;-59
2024/01/16 11:29:38;;;;;;;0.20;0.20;;;10.70;62.00;;;;;;5049131;28;20494;-61
2024/01/16 11:32:07;;;;;;;0.30;0.30;;;10.60;62.10;;;;;;5049339;28;20056;-60
2024/01/16 11:34:57;;;;;;;0.30;0.30;;;10.30;61.80;;;;;;5050961;28;20090;-58
2024/01/16 11:37:29;;;;;;;0.30;0.30;;;10.10;62.20;;;;;;5046587;28;20048;-63
2024/01/16 11:40:22;;;;;;;0.22;0.22;;;9.90;62.70;;;;;;5061974;28;20067;-59
2024/01/16 11:42:54;;;;;;;0.30;0.30;;;9.70;62.90;;;;;;5040900;28;20056;-60
2024/01/16 11:45:52;;;;;;;0.30;0.30;;;9.60;63.00;;;;;;5067712;28;21820;-59
2024/01/16 11:48:20;;;;;;;0.30;0.30;;;9.50;63.50;;;;;;5050657;28;20048;-60
2024/01/16 11:50:49;;;;;;;0.30;0.30;;;9.40;64.00;;;;;;5052513;28;20502;-59
2024/01/16 11:53:39;;;;;;;0.30;0.30;;;9.40;64.30;;;;;;5050748;28;20048;-62
2024/01/16 11:56:37;;;;;;;0.30;0.30;;;9.40;64.70;;;;;;5053000;28;20053;-60
2024/01/16 11:59:49;;;;;;;0.30;0.30;;;9.50;64.80;;;;;;5031623;28;20053;-59
2024/01/16 12:02:24;;;;;;;0.30;0.30;;;9.50;64.70;;;;;;5054715;28;20497;-60
2024/01/16 12:04:56;;;;;;;0.40;0.40;;;9.50;64.70;;;;;;5069264;28;20044;-61
2024/01/16 12:07:25;;;;;;;0.30;0.30;;;9.50;64.90;;;;;;5043663;28;20060;-59
2024/01/16 12:10:00;;;;;;;0.30;0.30;;;9.50;65.30;;;;;;5053593;28;20146;-60
2024/01/16 12:12:28;;;;;;;0.30;0.30;;;9.50;65.30;;;;;;5048943;28;20074;-61
2024/01/16 12:14:59;;;;;;;0.30;0.30;;;9.60;65.30;;;;;;5049141;28;20940;-61
2024/01/16 12:17:28;;;;;;;0.30;0.30;;;9.60;65.00;;;;;;5045361;28;20577;-59
2024/01/16 12:19:57;;;;;;;0.30;0.30;;;9.60;65.00;;;;;;5058787;28;20052;-61
2024/01/16 12:22:26;;;;;;;4.55;2.15;;;9.70;65.30;;;;;;5063744;28;20467;-61
2024/01/16 12:24:58;;;;;;;5.50;1.52;;;9.80;65.40;;;;;;5046148;28;20098;-61
2024/01/16 12:27:27;;;;;;;2.33;1.77;;;9.90;65.20;;;;;;5049398;28;20048;-60
2024/01/16 12:30:08;;;;;;;2.22;1.55;;;9.90;65.20;;;;;;5041403;28;20533;-61
2024/01/16 12:32:36;;;;;;;3.30;1.88;;;10.00;65.10;;;;;;5049590;28;20056;-60
2024/01/16 12:35:05;;;;;;;3.10;2.60;;;10.00;65.00;;;;;;5050759;28;20055;-61
2024/01/16 12:37:34;;;;;;;3.33;1.85;;;10.00;65.50;;;;;;5059929;28;20121;-60
2024/01/16 12:40:02;;;;;;;4.03;2.65;;;10.10;65.00;;;;;;5037463;28;20072;-61
2024/01/16 12:42:30;;;;;;;6.97;2.80;;;10.00;64.50;;;;;;5062246;28;20126;-60
2024/01/16 12:44:59;;;;;;;6.43;2.90;;;9.90;63.90;;;;;;5050714;28;20111;-62
2024/01/16 12:47:30;;;;;;;16.95;2.83;;;9.80;63.60;;;;;;5045942;28;20550;-57
2024/01/16 12:49:58;;;;;;;8.57;2.22;;;9.80;64.00;;;;;;5045704;28;20163;-60
2024/01/16 12:52:27;;;;;;;4.88;2.65;;;9.70;63.80;;;;;;5052203;28;20141;-60
2024/01/16 12:55:00;;;;;;;3.28;1.98;;;9.60;63.60;;;;;;5056879;28;20063;-59
2024/01/16 12:57:29;;;;;;;9.85;5.47;;;9.50;63.00;;;;;;5045203;28;20052;-60
2024/01/16 13:00:00;;;;;;;14.68;4.00;;;9.40;62.90;;;;;;5047711;28;20049;-59
2024/01/16 13:02:31;;;;;;;6.38;3.22;;;9.30;63.10;;;;;;5052760;28;20044;-57
2024/01/16 13:04:59;;;;;;;7.22;3.42;;;9.20;63.20;;;;;;5054583;28;20052;-57
2024/01/16 13:07:31;;;;;;;11.32;4.05;;;9.10;63.50;;;;;;5043120;28;20044;-59
2024/01/16 13:10:11;;;;;;;7.88;2.53;;;9.20;64.10;;;;;;5041662;28;20853;-62